Time;durP1;ratioP1;P1;durP2;ratioP2;P2;SDS_P1;SDS_P2;PMS_P1;PMS_P2;Temp;Humidity;BMP_temperature;BMP_pressure;BME280_temperature;BME280_humidity;BME280_pressure;Samples;Min_cycle;Max_cycle;Signal;HPM_P1;HPM_P2
2023/07/17 00:00:23;;;;;;;0.00;0.00;;;;;;;23.82;51.14;101499.66;5052771;28;20031;-72
2023/07/17 00:02:48;;;;;;;0.00;0.00;;;;;;;23.51;53.07;101488.31;5044852;28;20073;-72
2023/07/17 00:05:14;;;;;;;0.00;0.00;;;;;;;24.07;51.03;101487.53;5010901;28;20485;-72
2023/07/17 00:07:40;;;;;;;0.00;0.00;;;;;;;23.85;51.77;101507.31;5012251;28;20038;-73
2023/07/17 00:10:07;;;;;;;0.00;0.00;;;;;;;23.44;53.70;101498.03;5011299;28;20393;-73
2023/07/17 00:12:33;;;;;;;0.00;0.00;;;;;;;23.32;54.38;101503.94;5026751;28;20025;-74
2023/07/17 00:14:58;;;;;;;0.00;0.00;;;;;;;22.62;56.91;101507.47;5030259;28;20571;-71
2023/07/17 00:17:24;;;;;;;0.03;0.03;;;;;;;22.47;58.14;101513.84;5031757;28;20041;-73
2023/07/17 00:19:56;;;;;;;0.00;0.00;;;;;;;22.06;59.46;101515.28;5031046;28;20136;-71
2023/07/17 00:22:23;;;;;;;0.00;0.00;;;;;;;22.11;59.68;101514.44;5031406;28;20064;-72
2023/07/17 00:24:49;;;;;;;0.00;0.00;;;;;;;23.02;57.65;101511.66;5031793;28;20037;-72
2023/07/17 00:27:15;;;;;;;0.00;0.00;;;;;;;23.33;56.64;101513.78;5031441;28;20036;-71
2023/07/17 00:29:43;;;;;;;0.10;0.10;;;;;;;24.03;55.29;101511.19;5031621;28;20029;-72
2023/07/17 00:32:12;;;;;;;0.00;0.00;;;;;;;23.48;58.99;101521.03;5013247;28;20052;-72
2023/07/17 00:34:38;;;;;;;0.00;0.00;;;;;;;22.95;60.41;101520.25;5031671;28;20060;-73
2023/07/17 00:37:04;;;;;;;0.00;0.00;;;;;;;22.69;61.23;101521.63;5031303;28;20024;-72
2023/07/17 00:39:29;;;;;;;0.03;0.03;;;;;;;22.28;62.35;101523.06;5031750;28;20370;-73
2023/07/17 00:41:55;;;;;;;0.00;0.00;;;;;;;22.87;60.10;101520.06;5031029;28;20033;-74
2023/07/17 00:44:20;;;;;;;0.00;0.00;;;;;;;22.99;59.77;101517.75;5043403;28;20033;-72
2023/07/17 00:46:48;;;;;;;0.03;0.03;;;;;;;22.70;59.42;101515.06;5050338;28;20584;-73
2023/07/17 00:49:13;;;;;;;0.00;0.00;;;;;;;22.53;60.07;101507.22;5051235;28;20037;-72
2023/07/17 00:51:41;;;;;;;0.00;0.00;;;;;;;22.66;58.98;101503.03;5051311;28;20128;-73
2023/07/17 00:54:08;;;;;;;0.00;0.00;;;;;;;23.05;57.84;101509.19;5050119;28;20476;-72
2023/07/17 00:56:34;;;;;;;0.10;0.10;;;;;;;22.48;59.67;101509.19;5050437;28;20041;-72
2023/07/17 00:59:01;;;;;;;0.00;0.00;;;;;;;22.80;58.62;101506.69;5047435;28;20037;-72
2023/07/17 01:01:27;;;;;;;0.10;0.10;;;;;;;22.16;61.85;101517.94;5030433;28;20142;-72
2023/07/17 01:03:55;;;;;;;0.03;0.03;;;;;;;22.34;61.70;101517.28;5030642;28;20679;-72
2023/07/17 01:06:21;;;;;;;0.10;0.10;;;;;;;22.92;59.12;101514.56;5031579;28;20021;-72
2023/07/17 01:08:46;;;;;;;0.08;0.08;;;;;;;23.06;58.52;101518.22;5030608;28;20463;-73
2023/07/17 01:11:12;;;;;;;0.10;0.10;;;;;;;23.13;58.92;101516.78;5029891;28;20049;-72
2023/07/17 01:13:46;;;;;;;0.00;0.00;;;;;;;23.19;58.45;101526.53;5030334;28;20034;-73
2023/07/17 01:16:12;;;;;;;0.10;0.10;;;;;;;22.82;60.06;101523.69;5030447;28;20030;-71
2023/07/17 01:18:37;;;;;;;0.00;0.00;;;;;;;23.00;58.91;101525.69;5030779;28;20080;-72
2023/07/17 01:21:06;;;;;;;0.00;0.00;;;;;;;23.07;58.84;101526.16;5029450;28;20041;-73
2023/07/17 01:23:32;;;;;;;0.10;0.10;;;;;;;22.99;59.42;101528.72;5029437;28;20336;-73
2023/07/17 01:25:58;;;;;;;0.00;0.00;;;;;;;23.04;59.39;101525.91;5030326;28;20029;-72
2023/07/17 01:28:23;;;;;;;0.00;0.00;;;;;;;22.51;61.42;101528.63;5030443;28;20029;-73
2023/07/17 01:30:49;;;;;;;0.10;0.10;;;;;;;22.39;61.79;101528.16;5030885;28;20028;-72
2023/07/17 01:33:14;;;;;;;0.00;0.00;;;;;;;22.93;59.70;101524.41;5030148;28;20033;-73
2023/07/17 01:35:40;;;;;;;0.10;0.10;;;;;;;22.87;59.98;101518.16;5030181;28;20025;-72
2023/07/17 01:38:06;;;;;;;0.10;0.10;;;;;;;22.53;61.60;101518.19;5029930;28;20080;-73
2023/07/17 01:40:32;;;;;;;0.10;0.10;;;;;;;22.86;59.59;101512.97;5029696;28;20048;-73
2023/07/17 01:42:57;;;;;;;0.08;0.08;;;;;;;22.74;60.55;101510.63;5031415;28;20021;-71
2023/07/17 01:45:22;;;;;;;0.00;0.00;;;;;;;22.40;61.60;101518.88;5050665;28;20029;-72
2023/07/17 01:47:49;;;;;;;0.10;0.10;;;;;;;22.41;61.07;101525.97;5049583;28;20045;-72
2023/07/17 01:50:14;;;;;;;0.10;0.10;;;;;;;22.01;63.24;101528.19;5049688;28;20029;-72
2023/07/17 01:52:40;;;;;;;0.10;0.10;;;;;;;22.28;61.93;101529.38;5049642;28;20523;-72
2023/07/17 01:55:05;;;;;;;0.10;0.10;;;;;;;22.45;60.43;101521.53;5047960;28;20024;-73
2023/07/17 01:57:31;;;;;;;0.00;0.00;;;;;;;22.10;62.21;101524.56;5030271;28;20045;-72
2023/07/17 01:59:56;;;;;;;0.00;0.00;;;;;;;22.60;59.74;101529.63;5028202;28;20033;-72
2023/07/17 02:02:21;;;;;;;0.10;0.10;;;;;;;22.51;60.57;101525.88;5029505;28;20037;-72
2023/07/17 02:04:47;;;;;;;0.10;0.10;;;;;;;22.51;60.19;101522.31;5029730;28;20107;-72
2023/07/17 02:07:12;;;;;;;0.10;0.10;;;;;;;22.62;59.34;101521.16;5029564;28;20095;-72
2023/07/17 02:09:38;;;;;;;0.10;0.10;;;;;;;22.51;59.81;101530.53;5030228;28;20029;-72
2023/07/17 02:12:04;;;;;;;0.00;0.00;;;;;;;22.13;60.87;101543.16;5029194;28;20045;-73
2023/07/17 02:14:29;;;;;;;0.10;0.10;;;;;;;22.16;60.95;101533.56;5026873;28;20029;-70
2023/07/17 02:16:55;;;;;;;0.00;0.00;;;;;;;22.36;60.18;101533.41;5029703;28;20013;-72
2023/07/17 02:19:20;;;;;;;0.10;0.10;;;;;;;22.45;59.13;101537.16;5029525;28;20158;-72
2023/07/17 02:21:46;;;;;;;0.00;0.00;;;;;;;22.08;60.73;101537.72;5029243;28;20037;-72
2023/07/17 02:24:11;;;;;;;0.10;0.10;;;;;;;21.86;61.70;101537.31;5029376;28;20481;-73
2023/07/17 02:26:37;;;;;;;0.00;0.00;;;;;;;22.11;60.96;101547.28;5029098;28;20033;-71
2023/07/17 02:29:02;;;;;;;0.10;0.10;;;;;;;22.89;57.92;101545.28;5029963;28;20021;-74
2023/07/17 02:31:28;;;;;;;0.00;0.00;;;;;;;22.34;60.89;101539.19;5028896;28;20489;-71
2023/07/17 02:33:55;;;;;;;0.00;0.00;;;;;;;22.26;61.02;101548.00;5029661;28;20100;-73
2023/07/17 02:36:20;;;;;;;0.03;0.03;;;;;;;22.40;60.18;101548.16;5011538;28;20037;-73
2023/07/17 02:38:46;;;;;;;0.10;0.10;;;;;;;21.93;61.83;101551.53;5029434;28;20044;-71
2023/07/17 02:41:13;;;;;;;0.00;0.00;;;;;;;22.03;62.25;101551.47;5029950;28;20036;-72
2023/07/17 02:43:38;;;;;;;0.00;0.00;;;;;;;21.38;64.79;101557.22;5036336;28;20057;-72
2023/07/17 02:46:03;;;;;;;0.03;0.03;;;;;;;21.80;63.14;101550.22;5049470;28;20343;-73
2023/07/17 02:48:29;;;;;;;0.00;0.00;;;;;;;21.49;64.26;101550.63;5049005;28;20094;-71
2023/07/17 02:50:54;;;;;;;0.10;0.10;;;;;;;21.88;62.58;101542.53;5049491;28;20025;-71
2023/07/17 02:53:19;;;;;;;0.00;0.00;;;;;;;21.43;63.90;101558.03;5031560;28;20025;-71
2023/07/17 02:55:45;;;;;;;0.10;0.10;;;;;;;21.06;64.44;101552.13;5028890;28;20501;-72
2023/07/17 02:58:10;;;;;;;0.10;0.10;;;;;;;20.74;66.29;101559.81;5029325;28;20037;-73
2023/07/17 03:00:36;;;;;;;0.05;0.05;;;;;;;21.12;64.68;101553.75;5029100;28;20037;-72
2023/07/17 03:03:05;;;;;;;0.05;0.05;;;;;;;21.11;64.28;101554.84;5028958;28;20088;-73
2023/07/17 03:05:34;;;;;;;0.07;0.07;;;;;;;20.98;64.73;101549.94;5029153;28;20021;-72
2023/07/17 03:07:59;;;;;;;0.10;0.10;;;;;;;20.92;65.09;101548.31;5029605;28;20050;-71
2023/07/17 03:10:25;;;;;;;0.10;0.10;;;;;;;21.19;63.90;101557.00;5010979;28;20064;-72
2023/07/17 03:12:50;;;;;;;0.00;0.00;;;;;;;21.17;63.97;101555.66;5029296;28;20037;-71
2023/07/17 03:15:15;;;;;;;0.10;0.10;;;;;;;21.26;63.40;101552.09;5028788;28;20401;-72
2023/07/17 03:17:41;;;;;;;0.10;0.10;;;;;;;21.21;63.21;101554.03;5028655;28;20025;-72
2023/07/17 03:20:09;;;;;;;0.10;0.10;;;;;;;20.95;64.40;101561.44;5011133;28;20477;-72
2023/07/17 03:22:34;;;;;;;0.10;0.10;;;;;;;20.86;64.66;101568.53;5028855;28;20084;-72
2023/07/17 03:25:00;;;;;;;0.10;0.10;;;;;;;21.07;64.01;101563.91;5029138;28;20034;-71
2023/07/17 03:27:25;;;;;;;0.00;0.00;;;;;;;21.29;62.97;101567.09;5029272;28;20037;-71
2023/07/17 03:29:50;;;;;;;0.10;0.10;;;;;;;21.56;61.95;101565.63;5029287;28;20046;-71
2023/07/17 03:32:16;;;;;;;0.10;0.10;;;;;;;21.37;62.34;101570.09;5029539;28;20025;-72
2023/07/17 03:34:41;;;;;;;0.10;0.10;;;;;;;21.28;62.64;101560.00;5028739;28;20030;-74
2023/07/17 03:37:06;;;;;;;0.10;0.10;;;;;;;21.11;63.94;101563.03;5029162;28;20091;-71
2023/07/17 03:39:32;;;;;;;0.10;0.10;;;;;;;21.16;62.79;101564.94;5029144;28;20049;-72
2023/07/17 03:41:57;;;;;;;0.10;0.10;;;;;;;21.24;63.25;101564.38;5028684;28;20025;-72
2023/07/17 03:44:23;;;;;;;0.10;0.10;;;;;;;21.53;62.03;101565.38;5030783;28;20025;-72
2023/07/17 03:46:49;;;;;;;0.10;0.10;;;;;;;21.27;63.03;101563.81;5032716;28;20065;-72
2023/07/17 03:49:14;;;;;;;0.10;0.10;;;;;;;21.26;62.79;101570.41;5032565;28;20065;-72
2023/07/17 03:51:40;;;;;;;0.10;0.10;;;;;;;21.15;63.29;101571.53;5032737;28;20061;-72
2023/07/17 03:54:05;;;;;;;0.10;0.10;;;;;;;20.76;64.47;101568.53;5032918;28;20033;-72
2023/07/17 03:56:31;;;;;;;0.10;0.10;;;;;;;21.20;62.90;101577.81;5026329;28;20041;-71
2023/07/17 03:58:56;;;;;;;0.10;0.10;;;;;;;20.79;65.18;101574.31;5013420;28;20037;-71
2023/07/17 04:01:21;;;;;;;0.00;0.00;;;;;;;21.44;62.62;101578.81;5014326;28;20033;-74
2023/07/17 04:03:47;;;;;;;0.10;0.10;;;;;;;20.78;64.89;101575.38;5031877;28;20029;-72
2023/07/17 04:06:12;;;;;;;0.13;0.13;;;;;;;21.15;63.51;101577.78;5021593;28;20025;-72
2023/07/17 04:08:38;;;;;;;0.10;0.10;;;;;;;21.39;62.93;101588.94;5009422;28;20045;-72
2023/07/17 04:11:04;;;;;;;0.10;0.10;;;;;;;20.79;65.04;101579.78;5017727;28;20060;-73
2023/07/17 04:13:29;;;;;;;0.10;0.10;;;;;;;20.97;64.51;101581.91;5030726;28;20045;-72
2023/07/17 04:15:54;;;;;;;0.10;0.10;;;;;;;20.07;67.94;101582.69;5031701;28;20099;-73
2023/07/17 04:18:20;;;;;;;0.10;0.10;;;;;;;20.48;66.99;101586.31;5030351;28;20106;-73
2023/07/17 04:20:45;;;;;;;0.10;0.10;;;;;;;20.59;66.36;101581.69;5031299;28;20477;-71
2023/07/17 04:23:12;;;;;;;0.10;0.10;;;;;;;20.67;65.98;101589.31;5032064;28;20064;-71
2023/07/17 04:25:40;;;;;;;0.10;0.10;;;;;;;20.60;65.53;101592.31;5031227;28;20030;-72
2023/07/17 04:28:05;;;;;;;0.10;0.10;;;;;;;20.20;66.84;101584.13;5029553;28;20029;-71
2023/07/17 04:30:31;;;;;;;0.10;0.10;;;;;;;20.09;67.62;101588.69;5031862;28;20477;-74
2023/07/17 04:32:58;;;;;;;0.10;0.10;;;;;;;20.31;67.08;101595.84;5031282;28;20029;-72
2023/07/17 04:35:23;;;;;;;0.10;0.10;;;;;;;20.40;66.95;101586.06;5031260;28;20126;-72
2023/07/17 04:37:49;;;;;;;0.10;0.10;;;;;;;20.34;66.77;101589.88;5031321;28;20124;-72
2023/07/17 04:40:15;;;;;;;0.10;0.10;;;;;;;20.31;66.52;101596.69;5031174;28;20046;-72
2023/07/17 04:42:41;;;;;;;0.10;0.10;;;;;;;20.11;67.45;101597.44;5031553;28;20021;-72
2023/07/17 04:45:07;;;;;;;0.10;0.10;;;;;;;19.96;68.12;101591.94;5030890;28;20029;-71
2023/07/17 04:47:32;;;;;;;0.10;0.10;;;;;;;20.55;66.31;101586.88;5031056;28;20034;-73
2023/07/17 04:49:58;;;;;;;0.10;0.10;;;;;;;20.01;68.48;101591.94;5031059;28;20045;-71
2023/07/17 04:52:24;;;;;;;0.10;0.10;;;;;;;20.77;65.48;101598.34;5030995;28;20076;-71
2023/07/17 04:54:49;;;;;;;0.10;0.10;;;;;;;20.59;66.55;101592.59;5031881;28;20026;-72
2023/07/17 04:57:14;;;;;;;0.10;0.10;;;;;;;20.41;67.79;101596.69;5030624;28;20049;-71
2023/07/17 04:59:40;;;;;;;0.10;0.10;;;;;;;20.41;67.60;101596.69;5030725;28;20049;-72
2023/07/17 05:02:05;;;;;;;0.10;0.10;;;;;;;21.04;65.16;101608.16;5030712;28;20037;-72
2023/07/17 05:04:30;;;;;;;0.10;0.10;;;;;;;20.88;65.89;101612.81;5030616;28;20021;-72
2023/07/17 05:06:57;;;;;;;0.10;0.10;;;;;;;20.41;67.75;101614.97;5030730;28;20052;-71
2023/07/17 05:09:23;;;;;;;0.10;0.10;;;;;;;20.98;65.30;101608.16;5031551;28;20080;-72
2023/07/17 05:11:49;;;;;;;0.10;0.10;;;;;;;20.59;66.51;101619.91;5030379;28;20041;-71
2023/07/17 05:14:15;;;;;;;0.10;0.10;;;;;;;20.61;67.12;101618.56;5030448;28;20033;-72
2023/07/17 05:16:40;;;;;;;0.10;0.10;;;;;;;20.32;68.12;101605.69;5012890;28;20189;-72
2023/07/17 05:19:06;;;;;;;0.10;0.10;;;;;;;20.31;68.24;101615.78;5030608;28;20024;-72
2023/07/17 05:21:32;;;;;;;0.10;0.10;;;;;;;20.25;68.45;101622.31;5031222;28;20018;-72
2023/07/17 05:23:57;;;;;;;0.10;0.10;;;;;;;20.31;68.59;101620.41;5030340;28;20033;-72
2023/07/17 05:26:23;;;;;;;0.10;0.10;;;;;;;20.33;68.38;101620.97;5030188;28;20025;-73
2023/07/17 05:28:49;;;;;;;0.10;0.10;;;;;;;19.90;69.50;101622.19;5030817;28;20087;-72
2023/07/17 05:31:14;;;;;;;0.10;0.10;;;;;;;20.13;70.17;101625.28;5030660;28;20040;-71
2023/07/17 05:33:40;;;;;;;0.10;0.10;;;;;;;20.57;68.61;101627.56;5030745;28;20025;-72
2023/07/17 05:36:05;;;;;;;0.17;0.17;;;;;;;20.25;69.41;101638.69;5030873;28;20040;-73
2023/07/17 05:38:30;;;;;;;0.10;0.10;;;;;;;20.23;69.47;101640.88;5030343;28;20060;-73
2023/07/17 05:41:02;;;;;;;0.10;0.10;;;;;;;20.72;67.95;101643.94;5029834;28;20030;-74
2023/07/17 05:43:30;;;;;;;0.10;0.10;;;;;;;20.62;68.66;101639.31;5030122;28;20029;-72
2023/07/17 05:45:56;;;;;;;0.13;0.13;;;;;;;20.94;67.41;101642.59;5030111;28;20055;-73
2023/07/17 05:48:21;;;;;;;0.10;0.10;;;;;;;20.18;69.47;101646.31;5030952;28;20026;-73
2023/07/17 05:50:47;;;;;;;0.10;0.10;;;;;;;20.29;69.12;101653.44;5030231;28;20515;-72
2023/07/17 05:53:14;;;;;;;0.10;0.10;;;;;;;21.27;65.78;101654.88;5029922;28;20119;-72
2023/07/17 05:55:39;;;;;;;0.08;0.08;;;;;;;20.69;68.17;101653.53;5029781;28;20073;-72
2023/07/17 05:58:05;;;;;;;0.00;0.00;;;;;;;21.62;64.80;101652.03;5030047;28;20037;-72
2023/07/17 06:00:30;;;;;;;0.10;0.10;;;;;;;20.95;66.94;101643.41;5030384;28;20083;-70
2023/07/17 06:02:55;;;;;;;0.10;0.10;;;;;;;21.23;65.42;101653.78;5030012;28;20628;-73
2023/07/17 06:05:21;;;;;;;0.00;0.00;;;;;;;21.89;64.14;101659.09;5030076;28;20040;-72
2023/07/17 06:07:46;;;;;;;0.10;0.10;;;;;;;21.88;64.09;101661.00;5029118;28;20057;-73
2023/07/17 06:10:15;;;;;;;0.10;0.10;;;;;;;21.33;65.25;101661.97;5029873;28;20061;-73
2023/07/17 06:12:42;;;;;;;0.10;0.10;;;;;;;21.33;65.51;101672.06;5030111;28;20064;-72
2023/07/17 06:15:09;;;;;;;0.05;0.05;;;;;;;21.55;64.96;101678.06;5028462;28;20034;-74
2023/07/17 06:17:35;;;;;;;0.10;0.10;;;;;;;21.10;65.96;101667.19;5010173;28;20042;-73
2023/07/17 06:20:00;;;;;;;0.10;0.10;;;;;;;20.84;66.87;101672.66;5010006;28;20095;-74
2023/07/17 06:22:25;;;;;;;0.10;0.10;;;;;;;21.23;65.24;101675.66;5009970;28;20034;-71
2023/07/17 06:24:51;;;;;;;0.10;0.10;;;;;;;21.29;65.40;101682.75;5010173;28;20497;-71
2023/07/17 06:27:16;;;;;;;0.00;0.00;;;;;;;21.04;66.64;101692.88;5020842;28;20029;-70
2023/07/17 06:29:42;;;;;;;0.10;0.10;;;;;;;21.11;65.91;101682.53;5029464;28;20038;-71
2023/07/17 06:32:07;;;;;;;0.00;0.00;;;;;;;21.45;64.53;101689.84;5011114;28;20084;-72
2023/07/17 06:34:33;;;;;;;0.10;0.10;;;;;;;21.31;65.05;101690.69;5029474;28;20032;-72
2023/07/17 06:36:59;;;;;;;0.10;0.10;;;;;;;21.16;65.63;101679.75;5022498;28;20025;-71
2023/07/17 06:39:25;;;;;;;0.10;0.10;;;;;;;21.31;65.04;101682.47;5010335;28;20057;-71
2023/07/17 06:41:50;;;;;;;0.10;0.10;;;;;;;21.57;65.10;101684.06;4993664;28;20034;-73
2023/07/17 06:44:16;;;;;;;0.10;0.10;;;;;;;21.11;65.37;101687.97;5000929;28;20038;-73
2023/07/17 06:46:41;;;;;;;0.10;0.10;;;;;;;21.29;65.98;101693.69;5009938;28;20037;-73
2023/07/17 06:49:07;;;;;;;0.10;0.10;;;;;;;22.21;63.21;101682.19;5009404;28;20033;-71
2023/07/17 06:51:32;;;;;;;0.10;0.10;;;;;;;22.62;61.61;101693.78;5009818;28;20025;-72
2023/07/17 06:53:57;;;;;;;0.10;0.10;;;;;;;22.30;62.90;101693.38;5009162;28;20033;-71
2023/07/17 06:56:23;;;;;;;0.00;0.00;;;;;;;21.91;62.83;101701.50;5009982;28;20050;-74
2023/07/17 06:58:48;;;;;;;0.10;0.10;;;;;;;22.02;62.93;101697.63;5011068;28;20045;-72
2023/07/17 07:01:16;;;;;;;0.00;0.00;;;;;;;21.57;64.21;101705.94;5029237;28;20029;-73
2023/07/17 07:03:43;;;;;;;0.00;0.00;;;;;;;21.48;64.48;101702.94;5029440;28;20021;-72
2023/07/17 07:06:09;;;;;;;0.05;0.05;;;;;;;21.64;63.83;101711.97;5029260;28;20061;-71
2023/07/17 07:08:34;;;;;;;0.00;0.00;;;;;;;22.77;61.05;101703.78;5010651;28;20072;-72
2023/07/17 07:11:01;;;;;;;0.00;0.00;;;;;;;22.34;61.80;101705.41;5028653;28;20469;-74
2023/07/17 07:13:26;;;;;;;0.00;0.00;;;;;;;22.01;62.45;101709.69;5028421;28;20045;-71
2023/07/17 07:15:52;;;;;;;0.00;0.00;;;;;;;21.91;63.74;101708.91;5029476;28;20044;-73
2023/07/17 07:18:19;;;;;;;0.00;0.00;;;;;;;22.36;61.82;101720.47;5029282;28;20393;-74
2023/07/17 07:20:46;;;;;;;0.00;0.00;;;;;;;22.70;60.56;101723.31;5032998;28;20034;-72
2023/07/17 07:23:11;;;;;;;0.00;0.00;;;;;;;22.28;62.70;101718.31;5033063;28;20041;-73
2023/07/17 07:25:37;;;;;;;0.10;0.10;;;;;;;22.56;60.41;101723.06;5032384;28;20056;-71
2023/07/17 07:28:03;;;;;;;0.05;0.05;;;;;;;21.81;63.09;101731.66;5032117;28;20029;-73
2023/07/17 07:30:29;;;;;;;0.00;0.00;;;;;;;21.70;64.41;101721.78;5033049;28;20025;-71
2023/07/17 07:32:54;;;;;;;0.10;0.10;;;;;;;21.80;63.50;101717.13;5032162;28;20493;-74
2023/07/17 07:35:20;;;;;;;0.00;0.00;;;;;;;22.76;60.65;101732.31;5032716;28;20366;-73
2023/07/17 07:37:46;;;;;;;0.10;0.10;;;;;;;22.57;60.62;101726.66;5032260;28;20041;-72
2023/07/17 07:40:12;;;;;;;0.05;0.05;;;;;;;22.04;61.93;101731.00;5032480;28;20032;-73
2023/07/17 07:42:41;;;;;;;0.03;0.03;;;;;;;22.16;62.13;101738.91;5031425;28;20025;-70
2023/07/17 07:45:07;;;;;;;0.00;0.00;;;;;;;21.96;62.65;101731.59;5047399;28;20033;-72
2023/07/17 07:47:33;;;;;;;0.00;0.00;;;;;;;21.97;61.01;101730.50;5038612;28;20095;-70
2023/07/17 07:49:59;;;;;;;0.03;0.03;;;;;;;22.74;59.00;101737.28;5017013;28;20042;-72
2023/07/17 07:52:25;;;;;;;0.10;0.10;;;;;;;22.66;58.53;101749.66;5008833;28;20054;-71
2023/07/17 07:54:50;;;;;;;0.10;0.10;;;;;;;21.51;62.95;101748.09;5012988;28;20069;-70
2023/07/17 07:57:16;;;;;;;0.10;0.10;;;;;;;22.36;59.24;101750.59;5031485;28;20587;-71
2023/07/17 07:59:41;;;;;;;0.10;0.10;;;;;;;21.95;59.72;101746.38;5017006;28;20041;-73
2023/07/17 08:02:07;;;;;;;0.10;0.10;;;;;;;22.57;59.45;101751.34;5011757;28;20034;-72
2023/07/17 08:04:32;;;;;;;0.05;0.05;;;;;;;22.84;57.99;101740.75;4994141;28;20609;-72
2023/07/17 08:06:58;;;;;;;0.00;0.00;;;;;;;22.89;58.10;101748.13;5012186;28;20394;-71
2023/07/17 08:09:24;;;;;;;0.00;0.00;;;;;;;22.14;60.39;101754.78;5012691;28;20108;-72
2023/07/17 08:11:50;;;;;;;0.10;0.10;;;;;;;22.38;59.80;101751.16;5011777;28;20048;-72
2023/07/17 08:14:15;;;;;;;0.10;0.10;;;;;;;22.56;57.58;101747.72;5011662;28;20498;-72
2023/07/17 08:16:40;;;;;;;0.00;0.00;;;;;;;22.64;57.56;101755.41;5018528;28;20038;-73
2023/07/17 08:19:06;;;;;;;0.00;0.00;;;;;;;22.65;59.29;101756.22;5031141;28;20048;-72
2023/07/17 08:21:32;;;;;;;0.00;0.00;;;;;;;23.26;57.24;101765.66;5031840;28;20025;-71
2023/07/17 08:23:58;;;;;;;0.00;0.00;;;;;;;23.73;55.64;101762.22;5031363;28;20504;-72
2023/07/17 08:26:24;;;;;;;0.08;0.08;;;;;;;23.66;55.16;101760.94;5027345;28;20034;-74
2023/07/17 08:28:49;;;;;;;0.00;0.00;;;;;;;23.63;54.15;101762.31;5011751;28;20064;-72
2023/07/17 08:31:15;;;;;;;0.00;0.00;;;;;;;23.51;55.07;101759.13;5011419;28;20034;-73
2023/07/17 08:33:40;;;;;;;0.00;0.00;;;;;;;23.53;54.37;101749.53;5012574;28;20036;-71
2023/07/17 08:36:06;;;;;;;0.00;0.00;;;;;;;23.21;56.78;101756.66;5029635;28;20037;-71
2023/07/17 08:38:31;;;;;;;0.00;0.00;;;;;;;23.65;54.17;101762.84;5031201;28;20103;-71
2023/07/17 08:40:59;;;;;;;0.00;0.00;;;;;;;23.35;54.20;101768.63;5031285;28;20033;-73
2023/07/17 08:43:25;;;;;;;0.00;0.00;;;;;;;22.88;55.76;101779.38;5031635;28;20086;-71
2023/07/17 08:45:52;;;;;;;0.00;0.00;;;;;;;22.90;60.62;101793.63;5031647;28;20064;-71
2023/07/17 08:48:18;;;;;;;0.00;0.00;;;;;;;22.81;66.82;101793.41;5032903;28;20136;-72
2023/07/17 08:50:44;;;;;;;0.00;0.00;;;;;;;21.16;72.06;101798.16;4995381;28;20046;-69
2023/07/17 08:53:11;;;;;;;0.10;0.10;;;;;;;20.42;76.90;101796.84;5002107;28;20042;-72
2023/07/17 08:55:36;;;;;;;0.10;0.10;;;;;;;20.93;76.79;101793.97;5011506;28;20058;-71
2023/07/17 08:58:03;;;;;;;0.10;0.10;;;;;;;21.23;75.02;101797.88;4992076;28;20042;-71
2023/07/17 09:00:32;;;;;;;0.10;0.10;;;;;;;21.56;73.04;101800.06;4992128;28;20109;-71
2023/07/17 09:02:58;;;;;;;0.10;0.10;;;;;;;21.35;72.90;101790.22;4991639;28;20026;-74
2023/07/17 09:05:24;;;;;;;0.10;0.10;;;;;;;22.04;72.92;101793.97;4991669;28;20031;-72
2023/07/17 09:07:49;;;;;;;0.10;0.10;;;;;;;21.49;73.82;101792.13;4991264;28;20066;-72
2023/07/17 09:10:19;;;;;;;0.10;0.10;;;;;;;21.85;74.07;101790.22;4989817;28;20027;-75
2023/07/17 09:12:54;;;;;;;0.10;0.10;;;;;;;21.66;70.53;101792.66;4991961;28;20058;-74
2023/07/17 09:15:20;;;;;;;0.10;0.10;;;;;;;21.77;69.24;101794.28;4994110;28;20042;-72
2023/07/17 09:17:45;;;;;;;0.10;0.10;;;;;;;22.32;68.57;101792.53;5011110;28;20072;-72
2023/07/17 09:20:13;;;;;;;0.00;0.00;;;;;;;21.69;65.67;101788.56;5010863;28;20046;-73
2023/07/17 09:22:39;;;;;;;0.10;0.10;;;;;;;22.09;64.30;101787.69;5010475;28;20049;-74
2023/07/17 09:25:08;;;;;;;0.00;0.00;;;;;;;22.51;64.80;101786.13;5010541;28;20076;-74
2023/07/17 09:27:51;;;;;;;0.05;0.05;;;;;;;23.59;63.15;101791.44;5011019;28;20466;-73
2023/07/17 09:30:24;;;;;;;0.00;0.00;;;;;;;23.05;61.19;101783.38;5010728;28;20092;-72
2023/07/17 09:32:50;;;;;;;0.10;0.10;;;;;;;22.69;62.94;101784.69;5010420;28;20072;-72
2023/07/17 09:35:22;;;;;;;0.00;0.00;;;;;;;22.96;60.84;101795.25;5010350;28;20441;-73
2023/07/17 09:37:47;;;;;;;0.00;0.00;;;;;;;23.51;60.55;101789.31;5010485;28;20041;-75
2023/07/17 09:40:17;;;;;;;0.10;0.10;;;;;;;23.75;59.60;101789.38;5010334;28;20083;-74
2023/07/17 09:42:44;;;;;;;0.00;0.00;;;;;;;23.87;59.29;101795.28;5010075;28;20030;-73
2023/07/17 09:45:14;;;;;;;0.00;0.00;;;;;;;24.11;59.31;101802.47;5010084;28;20405;-74
2023/07/17 09:47:40;;;;;;;0.00;0.00;;;;;;;24.33;57.93;101796.47;5010525;28;20498;-73
2023/07/17 09:50:07;;;;;;;0.00;0.00;;;;;;;23.75;55.27;101800.34;5010520;28;20117;-75
2023/07/17 09:52:33;;;;;;;0.00;0.00;;;;;;;24.34;56.94;101804.41;5010297;28;20049;-74
2023/07/17 09:55:02;;;;;;;0.00;0.00;;;;;;;23.68;54.13;101800.72;5010227;28;20034;-74
2023/07/17 09:57:28;;;;;;;0.00;0.00;;;;;;;24.11;52.97;101805.22;5040745;28;20048;-74
2023/07/17 09:59:59;;;;;;;0.00;0.00;;;;;;;23.80;51.45;101812.13;5050233;28;20046;-72
2023/07/17 10:02:38;;;;;;;0.00;0.00;;;;;;;23.84;51.47;101798.63;5050006;28;20025;-72
2023/07/17 10:05:05;;;;;;;0.00;0.00;;;;;;;23.70;50.92;101803.16;5049860;28;20041;-74
2023/07/17 10:07:35;;;;;;;0.00;0.00;;;;;;;24.14;49.94;101801.06;5049596;28;20033;-74
2023/07/17 10:10:01;;;;;;;0.00;0.00;;;;;;;23.81;50.89;101799.19;5049997;28;20032;-72
2023/07/17 10:12:28;;;;;;;0.00;0.00;;;;;;;23.59;50.46;101804.38;5050247;28;20120;-71
2023/07/17 10:14:54;;;;;;;0.00;0.00;;;;;;;24.05;49.92;101800.91;5049434;28;20115;-72
2023/07/17 10:17:37;;;;;;;0.00;0.00;;;;;;;24.67;48.08;101794.34;5030049;28;20128;-73
2023/07/17 10:20:07;;;;;;;0.00;0.00;;;;;;;24.58;49.55;101801.63;5029425;28;20072;-74
2023/07/17 10:22:39;;;;;;;0.00;0.00;;;;;;;24.66;49.37;101795.47;5029923;28;20038;-72
2023/07/17 10:25:17;;;;;;;0.00;0.00;;;;;;;25.44;47.28;101800.38;5029452;28;20071;-74
2023/07/17 10:27:50;;;;;;;0.00;0.00;;;;;;;25.28;47.89;101797.84;5029716;28;20052;-73
2023/07/17 10:30:33;;;;;;;0.00;0.00;;;;;;;24.51;47.82;101814.88;5029391;28;20109;-73
2023/07/17 10:33:05;;;;;;;0.00;0.00;;;;;;;24.85;46.97;101812.00;5029043;28;20065;-72
2023/07/17 10:35:50;;;;;;;0.00;0.00;;;;;;;24.53;44.97;101809.91;5029070;28;20045;-72
2023/07/17 10:38:23;;;;;;;0.00;0.00;;;;;;;24.36;46.60;101823.34;5029003;28;20038;-73
2023/07/17 10:40:48;;;;;;;0.00;0.00;;;;;;;24.66;45.45;101802.88;5029145;28;20037;-72
2023/07/17 10:43:15;;;;;;;0.00;0.00;;;;;;;25.36;44.78;101807.34;5029052;28;20124;-71
2023/07/17 10:45:41;;;;;;;0.00;0.00;;;;;;;25.06;44.23;101814.16;5029893;28;20045;-71
2023/07/17 10:48:07;;;;;;;0.00;0.00;;;;;;;24.78;45.95;101817.06;5029020;28;20056;-72
2023/07/17 10:50:32;;;;;;;0.00;0.00;;;;;;;24.44;45.06;101825.44;5028903;28;20030;-73
2023/07/17 10:53:02;;;;;;;0.00;0.00;;;;;;;24.41;46.60;101820.53;5031115;28;20054;-73
2023/07/17 10:55:29;;;;;;;0.00;0.00;;;;;;;24.24;45.58;101815.50;5035592;28;20033;-73
2023/07/17 10:57:56;;;;;;;0.00;0.00;;;;;;;24.15;46.80;101832.94;5035655;28;20420;-73
2023/07/17 11:00:21;;;;;;;0.00;0.00;;;;;;;23.96;47.13;101824.56;5036075;28;20485;-71
2023/07/17 11:02:47;;;;;;;0.00;0.00;;;;;;;24.26;47.27;101827.03;5035303;28;20090;-73
2023/07/17 11:05:12;;;;;;;0.00;0.00;;;;;;;24.41;48.44;101837.03;5035703;28;20041;-73
2023/07/17 11:07:37;;;;;;;0.00;0.00;;;;;;;24.08;49.13;101843.41;5035612;28;20517;-72
2023/07/17 11:10:09;;;;;;;0.00;0.00;;;;;;;23.34;53.05;101852.84;5035576;28;20029;-73
2023/07/17 11:12:35;;;;;;;0.00;0.00;;;;;;;23.57;53.32;101855.97;5018022;28;20674;-72
2023/07/17 11:15:00;;;;;;;0.00;0.00;;;;;;;23.00;54.29;101845.63;5035084;28;20037;-72
2023/07/17 11:17:25;;;;;;;0.08;0.08;;;;;;;24.15;52.21;101846.66;5035493;28;20112;-72
2023/07/17 11:19:59;;;;;;;0.00;0.00;;;;;;;23.73;52.45;101841.81;5035288;28;20033;-73